Terminal Aerodrome Forecast
Issued by NWS

Home | Current Version | Previous Version | Text Only | Print | Product List | Glossary On
Versions: 1 2 3 4 5 6 7 8 9 10 11 12 13 14 15
000
FTAK31 PANC 250223 AAA
TAFADU
TAF AMD
PADU 250223Z 2502/2524 VRB06KT P6SM SCT025 BKN040
     FM251100 17008KT P6SM BKN100
     FM251700 17015G27KT 4SM -RA BR SCT008 OVC015=

USA.gov is the U.S. government's official web portal to all federal, state and local government web resources and services.